createdAt,value
2023-01-08T00:01:16.075Z,98.30
2023-01-08T00:03:44.529Z,98.30
2023-01-08T00:06:15.078Z,98.30
2023-01-08T00:08:43.793Z,98.30
2023-01-08T00:11:12.506Z,98.40
2023-01-08T00:13:42.388Z,98.30
2023-01-08T00:16:13.676Z,98.30
2023-01-08T00:18:42.082Z,98.40
2023-01-08T00:21:10.600Z,98.40
2023-01-08T00:23:39.188Z,98.40
2023-01-08T00:26:09.631Z,98.40
2023-01-08T00:28:38.565Z,98.40
2023-01-08T00:31:09.238Z,98.40
2023-01-08T00:33:38.258Z,98.40
2023-01-08T00:36:09.653Z,98.40
2023-01-08T00:38:38.517Z,98.40
2023-01-08T00:41:07.193Z,98.40
2023-01-08T00:43:35.262Z,98.40
2023-01-08T00:46:03.481Z,98.40
2023-01-08T00:48:33.494Z,98.40
2023-01-08T00:51:03.106Z,98.40
2023-01-08T00:53:31.158Z,98.40
2023-01-08T00:56:02.758Z,98.40
2023-01-08T00:58:31.265Z,98.30
2023-01-08T01:00:59.761Z,98.40
2023-01-08T01:03:28.342Z,98.40
2023-01-08T01:06:03.479Z,98.30
2023-01-08T01:08:32.217Z,98.30
2023-01-08T01:11:00.363Z,98.30
2023-01-08T01:13:28.592Z,98.30
2023-01-08T01:16:00.201Z,98.30
2023-01-08T01:18:29.205Z,98.30
2023-01-08T01:20:57.559Z,98.30
2023-01-08T01:23:27.782Z,98.30
2023-01-08T01:25:55.932Z,98.30
2023-01-08T01:28:24.115Z,98.30
2023-01-08T01:30:56.720Z,98.20
2023-01-08T01:33:25.249Z,98.20
2023-01-08T01:36:01.740Z,98.20
2023-01-08T01:38:32.174Z,98.30
2023-01-08T01:41:00.629Z,98.20
2023-01-08T01:43:37.176Z,98.20
2023-01-08T01:46:07.638Z,98.30
2023-01-08T01:48:35.794Z,98.20
2023-01-08T01:51:04.162Z,98.20
2023-01-08T01:53:36.637Z,98.20
2023-01-08T01:56:05.903Z,98.20
2023-01-08T01:58:35.306Z,98.20
2023-01-08T02:01:07.338Z,98.20
2023-01-08T02:03:37.368Z,98.30
2023-01-08T02:06:16.324Z,98.20
2023-01-08T02:08:57.367Z,98.20
2023-01-08T02:11:32.039Z,98.30
2023-01-08T02:14:07.241Z,98.20
2023-01-08T02:16:43.313Z,98.20
2023-01-08T02:19:22.763Z,98.60
2023-01-08T02:22:09.065Z,98.20
2023-01-08T02:24:56.584Z,98.20
2023-01-08T02:27:33.167Z,98.20
2023-01-08T02:30:04.010Z,98.20
2023-01-08T02:32:45.317Z,98.20
2023-01-08T02:35:23.896Z,98.20
2023-01-08T02:37:54.877Z,98.20
2023-01-08T02:40:31.938Z,98.20
2023-01-08T02:43:12.244Z,98.20
2023-01-08T02:45:46.561Z,98.20
2023-01-08T02:48:18.364Z,98.20
2023-01-08T02:50:51.564Z,98.20
2023-01-08T02:53:23.828Z,98.20
2023-01-08T02:55:55.906Z,98.20
2023-01-08T02:58:28.893Z,98.20
2023-01-08T03:00:57.782Z,98.20
2023-01-08T03:03:28.344Z,98.20
2023-01-08T03:06:00.104Z,98.20
2023-01-08T03:08:29.335Z,98.20
2023-01-08T03:11:03.909Z,98.20
2023-01-08T03:13:39.579Z,98.20
2023-01-08T03:16:13.056Z,98.30
2023-01-08T03:18:47.015Z,98.20
2023-01-08T03:21:16.223Z,98.20
2023-01-08T03:23:45.628Z,98.20
2023-01-08T03:26:16.492Z,98.20
2023-01-08T03:28:51.521Z,98.20
2023-01-08T03:31:20.501Z,98.20
2023-01-08T03:33:50.213Z,98.20
2023-01-08T03:36:22.419Z,98.20
2023-01-08T03:38:55.376Z,98.20
2023-01-08T03:41:25.964Z,98.20
2023-01-08T03:43:55.560Z,98.20
2023-01-08T03:46:29.100Z,98.20
2023-01-08T03:48:59.091Z,98.20
2023-01-08T03:51:30.245Z,98.20
2023-01-08T03:54:00.151Z,98.20
2023-01-08T03:56:32.543Z,98.20
2023-01-08T03:59:02.552Z,98.20
2023-01-08T04:01:30.956Z,98.20
2023-01-08T04:03:59.470Z,98.20
2023-01-08T04:06:27.668Z,98.20
2023-01-08T04:08:55.768Z,98.30
2023-01-08T04:11:26.396Z,98.20
2023-01-08T04:13:56.834Z,98.20
2023-01-08T04:16:32.317Z,98.20
2023-01-08T04:19:00.803Z,98.30
2023-01-08T04:21:29.061Z,98.30
2023-01-08T04:23:57.148Z,98.20
2023-01-08T04:26:25.586Z,98.20
2023-01-08T04:28:53.615Z,98.20
2023-01-08T04:31:21.995Z,98.20
2023-01-08T04:33:51.798Z,98.30
2023-01-08T04:36:20.111Z,98.20
2023-01-08T04:38:48.523Z,98.20
2023-01-08T04:41:18.466Z,98.20
2023-01-08T04:43:46.690Z,98.60
2023-01-08T04:46:15.026Z,98.20
2023-01-08T04:48:43.216Z,98.20
2023-01-08T04:51:12.882Z,98.20
2023-01-08T04:53:41.512Z,98.30
2023-01-08T04:56:12.061Z,98.30
2023-01-08T04:58:40.875Z,98.20
2023-01-08T05:01:13.821Z,98.30
2023-01-08T05:03:42.145Z,98.30
2023-01-08T05:06:10.514Z,98.30
2023-01-08T05:08:40.337Z,98.30
2023-01-08T05:11:08.689Z,98.30
2023-01-08T05:13:36.723Z,98.30
2023-01-08T05:16:05.248Z,98.30
2023-01-08T05:18:33.483Z,98.30
2023-01-08T05:21:02.955Z,98.30
2023-01-08T05:23:31.401Z,98.30
2023-01-08T05:26:04.208Z,98.20
2023-01-08T05:28:33.286Z,98.30
2023-01-08T05:31:03.145Z,98.30
2023-01-08T05:33:31.740Z,98.20
2023-01-08T05:36:00.052Z,98.30
2023-01-08T05:38:28.141Z,98.30
2023-01-08T05:40:56.608Z,98.30
2023-01-08T05:43:26.513Z,98.30
2023-01-08T05:45:55.009Z,98.30
2023-01-08T05:48:23.125Z,98.30
2023-01-08T05:50:51.510Z,98.30
2023-01-08T05:53:19.899Z,98.20
2023-01-08T05:55:48.135Z,98.30
2023-01-08T05:58:19.329Z,98.30
2023-01-08T06:00:49.059Z,98.30
2023-01-08T06:03:17.163Z,98.30
2023-01-08T06:05:45.448Z,98.30
2023-01-08T06:08:13.700Z,98.30
2023-01-08T06:10:41.825Z,98.30
2023-01-08T06:13:10.254Z,98.30
2023-01-08T06:15:39.693Z,98.30
2023-01-08T06:18:09.477Z,98.30
2023-01-08T06:20:37.588Z,98.30
2023-01-08T06:23:05.681Z,98.30
2023-01-08T06:25:33.882Z,98.30
2023-01-08T06:28:02.238Z,98.30
2023-01-08T06:30:30.611Z,98.30
2023-01-08T06:32:59.036Z,98.30
2023-01-08T06:35:29.140Z,98.30
2023-01-08T06:37:57.346Z,98.30
2023-01-08T06:40:25.443Z,98.30
2023-01-08T06:42:53.520Z,98.30
2023-01-08T06:45:22.220Z,98.30
2023-01-08T06:47:51.048Z,98.30
2023-01-08T06:50:19.335Z,98.30
2023-01-08T06:52:55.102Z,98.30
2023-01-08T06:55:23.796Z,98.30
2023-01-08T06:57:55.223Z,98.30
2023-01-08T07:00:24.055Z,98.30
2023-01-08T07:02:52.601Z,98.30
2023-01-08T07:05:21.237Z,98.30
2023-01-08T07:07:49.387Z,98.30
2023-01-08T07:10:20.281Z,98.30
2023-01-08T07:12:49.007Z,98.30
2023-01-08T07:15:17.485Z,98.30
2023-01-08T07:17:45.597Z,98.30
2023-01-08T07:20:14.067Z,98.30
2023-01-08T07:22:42.767Z,98.30
2023-01-08T07:25:12.079Z,98.30
2023-01-08T07:27:41.888Z,98.40
2023-01-08T07:30:28.214Z,98.30
2023-01-08T07:33:00.731Z,98.30
2023-01-08T07:35:29.084Z,98.30
2023-01-08T07:37:57.176Z,98.30
2023-01-08T07:40:26.176Z,98.30
2023-01-08T07:43:04.190Z,98.30
2023-01-08T07:45:33.679Z,98.40
2023-01-08T07:48:03.298Z,98.40
2023-01-08T07:50:32.041Z,98.30
2023-01-08T07:53:00.818Z,98.40
2023-01-08T07:55:30.735Z,98.40
2023-01-08T07:57:59.123Z,98.40
2023-01-08T08:00:29.056Z,98.40
2023-01-08T08:02:57.672Z,98.40
2023-01-08T08:05:26.095Z,98.40
2023-01-08T08:07:54.334Z,98.40
2023-01-08T08:10:22.648Z,98.50
2023-01-08T08:12:51.062Z,98.40
2023-01-08T08:15:19.579Z,98.50
2023-01-08T08:17:50.152Z,98.50
2023-01-08T08:20:18.544Z,98.50
2023-01-08T08:22:46.829Z,98.50
2023-01-08T08:25:15.239Z,98.50
2023-01-08T08:27:43.809Z,98.60
2023-01-08T08:30:13.567Z,98.50
2023-01-08T08:32:41.901Z,98.60
2023-01-08T08:35:12.096Z,98.60
2023-01-08T08:37:40.463Z,98.60
2023-01-08T08:40:10.227Z,98.60
2023-01-08T08:42:38.474Z,98.70
2023-01-08T08:45:08.165Z,98.50
2023-01-08T08:47:36.428Z,98.60
2023-01-08T08:50:05.074Z,98.50
2023-01-08T08:52:37.628Z,98.50
2023-01-08T08:55:07.073Z,98.60
2023-01-08T08:57:35.446Z,98.60
2023-01-08T09:00:03.488Z,98.60
2023-01-08T09:02:37.218Z,98.70
2023-01-08T09:05:07.272Z,98.70
2023-01-08T09:07:37.032Z,98.80
2023-01-08T09:10:05.663Z,98.70
2023-01-08T09:12:33.898Z,98.80
2023-01-08T09:15:02.275Z,98.70
2023-01-08T09:17:30.360Z,98.70
2023-01-08T09:19:58.565Z,98.70
2023-01-08T09:22:26.666Z,98.60
2023-01-08T09:24:56.333Z,98.70
2023-01-08T09:27:24.619Z,98.60
2023-01-08T09:29:53.113Z,99.00
2023-01-08T09:32:21.908Z,98.70
2023-01-08T09:34:50.503Z,98.70
2023-01-08T09:37:18.590Z,98.70
2023-01-08T09:39:51.321Z,98.70
2023-01-08T09:42:26.425Z,98.70
2023-01-08T09:44:58.961Z,98.70
2023-01-08T09:47:30.346Z,98.70
2023-01-08T09:50:02.165Z,98.70
2023-01-08T09:52:31.509Z,98.70
2023-01-08T09:54:59.733Z,98.70
2023-01-08T09:57:30.815Z,98.70
2023-01-08T10:00:00.558Z,98.70
2023-01-08T10:02:31.584Z,98.60
2023-01-08T10:05:04.082Z,98.60
2023-01-08T10:07:32.419Z,98.60
2023-01-08T10:10:01.752Z,98.60
2023-01-08T10:12:33.098Z,98.60
2023-01-08T10:15:03.443Z,98.60
2023-01-08T10:17:40.319Z,98.60
2023-01-08T10:20:14.827Z,98.60
2023-01-08T10:22:42.950Z,98.60
2023-01-08T10:25:14.052Z,98.50
2023-01-08T10:27:51.953Z,98.50
2023-01-08T10:30:22.357Z,98.60
2023-01-08T10:32:54.595Z,98.60
2023-01-08T10:35:29.981Z,98.50
2023-01-08T10:37:58.048Z,98.60
2023-01-08T10:40:31.238Z,98.50
2023-01-08T10:43:09.764Z,98.50
2023-01-08T10:45:37.676Z,98.50
2023-01-08T10:48:08.349Z,98.50
2023-01-08T10:50:36.658Z,98.50
2023-01-08T10:53:06.918Z,98.50
2023-01-08T10:55:40.381Z,98.50
2023-01-08T10:58:15.943Z,98.50
2023-01-08T11:00:43.963Z,98.50
2023-01-08T11:03:22.272Z,98.60
2023-01-08T11:05:50.499Z,98.60
2023-01-08T11:08:23.207Z,98.50
2023-01-08T11:10:58.581Z,98.50
2023-01-08T11:13:29.778Z,98.50
2023-01-08T11:16:09.720Z,98.40
2023-01-08T11:18:46.703Z,98.40
2023-01-08T11:21:22.569Z,98.50
2023-01-08T11:24:04.813Z,98.40
2023-01-08T11:26:34.261Z,98.50
2023-01-08T11:29:15.481Z,98.40
2023-01-08T11:32:00.091Z,98.40
2023-01-08T11:34:36.618Z,98.40
2023-01-08T11:37:13.017Z,98.40
2023-01-08T11:39:41.241Z,98.40
2023-01-08T11:42:21.806Z,98.40
2023-01-08T11:45:03.553Z,98.40
2023-01-08T11:47:45.368Z,98.40
2023-01-08T11:50:25.814Z,98.50
2023-01-08T11:53:20.808Z,98.50
2023-01-08T11:56:01.211Z,98.50
2023-01-08T11:58:40.943Z,98.50
2023-01-08T12:01:44.304Z,98.50
2023-01-08T12:04:50.906Z,98.50
2023-01-08T12:07:24.954Z,98.50
2023-01-08T12:10:07.503Z,98.60
2023-01-08T12:12:50.936Z,98.50
2023-01-08T12:15:31.058Z,98.50
2023-01-08T12:18:35.257Z,98.50
2023-01-08T12:21:14.141Z,98.50
2023-01-08T12:23:57.934Z,98.50
2023-01-08T12:26:33.928Z,98.50
2023-01-08T12:29:27.844Z,98.50
2023-01-08T12:32:22.368Z,98.50
2023-01-08T12:35:02.744Z,98.50
2023-01-08T12:37:36.748Z,98.60
2023-01-08T12:40:18.640Z,98.60
2023-01-08T12:43:01.943Z,98.70
2023-01-08T12:45:34.017Z,98.70
2023-01-08T12:48:08.552Z,98.70
2023-01-08T12:50:45.016Z,98.70
2023-01-08T12:53:23.316Z,98.70
2023-01-08T12:56:01.088Z,98.70
2023-01-08T12:59:00.902Z,98.70
2023-01-08T13:01:50.407Z,98.70
2023-01-08T13:04:21.684Z,98.70
2023-01-08T13:07:01.938Z,98.70
2023-01-08T13:09:34.835Z,98.70
2023-01-08T13:12:08.190Z,98.70
2023-01-08T13:15:00.682Z,98.80
2023-01-08T13:17:46.553Z,98.80
2023-01-08T13:20:41.911Z,98.70
2023-01-08T13:24:23.071Z,98.80
2023-01-08T13:30:51.864Z,98.80
2023-01-08T13:34:12.403Z,98.70
2023-01-08T13:37:30.450Z,98.70
2023-01-08T13:40:27.371Z,98.70
2023-01-08T13:43:32.321Z,98.80
2023-01-08T13:46:35.376Z,98.70
2023-01-08T13:49:39.858Z,98.60
2023-01-08T13:52:40.555Z,98.60
2023-01-08T13:55:26.040Z,98.60
2023-01-08T13:58:01.479Z,98.60
2023-01-08T14:00:37.372Z,98.50
2023-01-08T14:07:54.400Z,98.50
2023-01-08T14:11:22.177Z,98.50
2023-01-08T14:18:06.057Z,98.60
2023-01-08T14:20:59.900Z,98.50
2023-01-08T14:23:45.605Z,98.50
2023-01-08T14:26:53.010Z,98.60
2023-01-08T14:29:37.223Z,98.50
2023-01-08T14:32:30.744Z,98.60
2023-01-08T14:35:34.643Z,98.60
2023-01-08T14:38:53.319Z,98.60
2023-01-08T14:42:05.668Z,98.60
2023-01-08T14:44:51.852Z,98.60
2023-01-08T14:47:35.702Z,98.60
2023-01-08T14:50:28.268Z,98.60
2023-01-08T14:52:59.686Z,98.60
2023-01-08T14:55:32.619Z,98.60
2023-01-08T14:58:25.722Z,98.50
2023-01-08T15:01:02.580Z,98.70
2023-01-08T15:03:38.716Z,98.50
2023-01-08T15:06:58.716Z,98.50
2023-01-08T15:13:13.887Z,98.50
2023-01-08T15:16:46.092Z,98.50
2023-01-08T15:19:13.691Z,98.50
2023-01-08T15:22:49.281Z,98.50
2023-01-08T15:25:20.334Z,98.50
2023-01-08T15:31:55.055Z,98.50
2023-01-08T15:34:36.036Z,98.50
2023-01-08T15:37:52.689Z,98.50
2023-01-08T15:41:08.883Z,98.50
2023-01-08T15:44:12.172Z,98.50
2023-01-08T15:46:54.318Z,98.50
2023-01-08T15:49:32.685Z,98.50
2023-01-08T15:52:33.165Z,98.50
2023-01-08T15:55:40.815Z,98.50
2023-01-08T15:59:17.679Z,98.50
2023-01-08T16:02:23.102Z,98.50
2023-01-08T16:05:47.122Z,98.50
2023-01-08T16:08:49.971Z,98.50
2023-01-08T16:11:43.728Z,98.50
2023-01-08T16:14:20.280Z,98.50
2023-01-08T16:17:31.323Z,98.50
2023-01-08T16:20:51.610Z,98.50
2023-01-08T16:23:25.637Z,98.50
2023-01-08T16:26:32.284Z,98.40
2023-01-08T16:34:05.359Z,98.40
2023-01-08T16:39:32.316Z,98.40
2023-01-08T16:42:46.638Z,98.40
2023-01-08T16:45:30.052Z,98.40
2023-01-08T16:48:33.760Z,98.40
2023-01-08T16:51:32.297Z,98.40
2023-01-08T16:54:18.635Z,98.40
2023-01-08T16:57:08.074Z,98.70
2023-01-08T16:59:52.891Z,98.40
2023-01-08T17:02:34.052Z,98.40
2023-01-08T17:05:11.587Z,98.40
2023-01-08T17:11:20.425Z,98.30
2023-01-08T17:14:15.899Z,98.30
2023-01-08T17:18:12.252Z,98.30
2023-01-08T17:30:51.869Z,98.30
2023-01-08T17:35:17.153Z,98.30
2023-01-08T17:36:45.601Z,98.30
2023-01-08T17:40:09.877Z,98.20
2023-01-08T17:42:58.060Z,98.20
2023-01-08T17:45:56.296Z,98.20
2023-01-08T17:49:03.217Z,98.30
2023-01-08T17:52:24.303Z,98.30
2023-01-08T17:55:36.767Z,98.30
2023-01-08T17:58:49.289Z,98.30
2023-01-08T18:01:45.059Z,98.30
2023-01-08T18:08:21.351Z,98.30
2023-01-08T18:14:45.566Z,98.30
2023-01-08T18:17:36.510Z,98.20
2023-01-08T18:20:21.037Z,98.30
2023-01-08T18:23:25.006Z,98.30
2023-01-08T18:26:21.976Z,98.20
2023-01-08T18:28:59.905Z,98.30
2023-01-08T18:31:49.544Z,98.30
2023-01-08T18:34:28.525Z,98.30
2023-01-08T18:37:51.237Z,98.30
2023-01-08T18:49:15.657Z,98.30
2023-01-08T18:52:05.883Z,98.30
2023-01-08T19:08:20.971Z,98.40
2023-01-08T19:11:30.967Z,98.40
2023-01-08T19:17:28.549Z,98.40
2023-01-08T19:20:13.717Z,98.40
2023-01-08T19:23:15.852Z,98.40
2023-01-08T19:25:55.236Z,98.40
2023-01-08T19:28:34.591Z,98.40
2023-01-08T19:31:18.519Z,98.50
2023-01-08T19:34:03.552Z,98.40
2023-01-08T19:37:01.704Z,98.50
2023-01-08T19:39:30.912Z,98.40
2023-01-08T19:42:25.692Z,98.50
2023-01-08T19:45:41.061Z,98.50
2023-01-08T19:49:01.382Z,98.50
2023-01-08T19:54:11.657Z,98.50
2023-01-08T19:57:27.779Z,98.50
2023-01-08T20:00:17.788Z,98.50
2023-01-08T20:03:18.525Z,98.50
2023-01-08T20:07:08.629Z,98.50
2023-01-08T20:09:30.683Z,98.50
2023-01-08T20:12:18.225Z,98.50
2023-01-08T20:14:50.446Z,98.60
2023-01-08T20:17:21.868Z,98.60
2023-01-08T20:19:51.661Z,98.60
2023-01-08T20:22:22.474Z,98.60
2023-01-08T20:24:56.490Z,98.60
2023-01-08T20:27:31.418Z,98.60
2023-01-08T20:30:08.670Z,98.60
2023-01-08T20:32:40.974Z,98.60
2023-01-08T20:35:16.170Z,98.50
2023-01-08T20:37:48.140Z,98.50
2023-01-08T20:40:18.654Z,98.40
2023-01-08T20:42:48.144Z,98.50
2023-01-08T20:45:20.001Z,98.40
2023-01-08T20:47:55.147Z,98.40
2023-01-08T20:50:23.525Z,98.40
2023-01-08T20:52:51.779Z,98.40
2023-01-08T20:55:23.324Z,98.40
2023-01-08T20:57:51.781Z,98.40
2023-01-08T21:00:25.790Z,98.40
2023-01-08T21:02:55.809Z,98.40
2023-01-08T21:05:27.447Z,98.30
2023-01-08T21:07:55.775Z,98.30
2023-01-08T21:10:30.292Z,98.30
2023-01-08T21:12:58.611Z,98.20
2023-01-08T21:15:27.321Z,98.20
2023-01-08T21:18:07.062Z,98.20
2023-01-08T21:20:37.551Z,98.20
2023-01-08T21:23:06.280Z,98.20
2023-01-08T21:25:35.286Z,98.20
2023-01-08T21:28:06.494Z,98.20
2023-01-08T21:30:39.141Z,98.20
2023-01-08T21:33:09.554Z,98.20
2023-01-08T21:35:40.982Z,98.20
2023-01-08T21:38:09.588Z,98.20
2023-01-08T21:40:41.089Z,98.10
2023-01-08T21:43:29.179Z,98.10
2023-01-08T21:46:06.124Z,98.10
2023-01-08T21:48:37.598Z,98.10
2023-01-08T21:51:26.525Z,98.10
2023-01-08T21:53:53.659Z,98.10
2023-01-08T21:56:23.669Z,98.00
2023-01-08T21:58:51.970Z,98.00
2023-01-08T22:01:20.359Z,98.00
2023-01-08T22:03:50.181Z,98.00
2023-01-08T22:06:20.312Z,98.00
2023-01-08T22:08:56.290Z,98.00
2023-01-08T22:11:25.399Z,98.00
2023-01-08T22:13:53.810Z,98.00
2023-01-08T22:16:22.274Z,98.00
2023-01-08T22:18:52.127Z,98.00
2023-01-08T22:21:20.526Z,98.10
2023-01-08T22:23:50.798Z,98.10
2023-01-08T22:26:20.265Z,98.00
2023-01-08T22:28:48.785Z,98.00
2023-01-08T22:31:17.750Z,98.10
2023-01-08T22:33:48.082Z,98.10
2023-01-08T22:36:18.622Z,98.10
2023-01-08T22:38:52.904Z,98.10
2023-01-08T22:41:26.270Z,98.10
2023-01-08T22:43:57.391Z,98.10
2023-01-08T22:46:26.856Z,98.10
2023-01-08T22:48:57.829Z,98.10
2023-01-08T22:51:27.678Z,98.10
2023-01-08T22:53:58.724Z,98.10
2023-01-08T22:56:28.023Z,98.10
2023-01-08T22:58:59.858Z,98.00
2023-01-08T23:01:28.653Z,98.10
2023-01-08T23:03:58.688Z,98.00
2023-01-08T23:06:32.288Z,98.10
2023-01-08T23:09:00.800Z,98.00
2023-01-08T23:11:29.842Z,98.00
2023-01-08T23:13:58.321Z,98.00
2023-01-08T23:16:29.942Z,98.00
2023-01-08T23:18:58.610Z,98.00
2023-01-08T23:21:29.357Z,98.00
2023-01-08T23:23:58.177Z,98.00
2023-01-08T23:26:30.014Z,98.00
2023-01-08T23:29:01.843Z,98.00
2023-01-08T23:31:31.225Z,98.00
2023-01-08T23:34:01.578Z,98.40
2023-01-08T23:36:31.568Z,98.00
2023-01-08T23:39:03.580Z,98.40
2023-01-08T23:41:35.449Z,98.00
2023-01-08T23:44:08.928Z,98.10
2023-01-08T23:46:40.779Z,98.10
2023-01-08T23:49:11.815Z,98.10
2023-01-08T23:51:42.804Z,98.10
2023-01-08T23:54:11.570Z,98.10
2023-01-08T23:56:40.441Z,98.20
2023-01-08T23:59:09.019Z,98.10
